sensor_id;sensor_type;location;lat;lon;timestamp;pressure;altitude;pressure_sealevel;temperature;humidity
71996;BME280;59862;47.732;7.346;2023-05-02T00:02:09;98240.53;;;11.68;71.83
71996;BME280;59862;47.732;7.346;2023-05-02T00:04:37;98248.42;;;11.66;71.64
71996;BME280;59862;47.732;7.346;2023-05-02T00:07:05;98242.16;;;11.55;71.60
71996;BME280;59862;47.732;7.346;2023-05-02T00:09:32;98244.78;;;11.44;71.64
71996;BME280;59862;47.732;7.346;2023-05-02T00:12:00;98240.59;;;11.46;71.27
71996;BME280;59862;47.732;7.346;2023-05-02T00:14:28;98244.73;;;11.48;71.39
71996;BME280;59862;47.732;7.346;2023-05-02T00:16:56;98239.79;;;11.41;71.24
71996;BME280;59862;47.732;7.346;2023-05-02T00:19:23;98246.13;;;11.44;71.43
71996;BME280;59862;47.732;7.346;2023-05-02T00:21:50;98239.26;;;11.41;71.58
71996;BME280;59862;47.732;7.346;2023-05-02T00:24:18;98242.48;;;11.37;71.75
71996;BME280;59862;47.732;7.346;2023-05-02T00:26:46;98243.61;;;11.28;71.93
71996;BME280;59862;47.732;7.346;2023-05-02T00:29:13;98240.63;;;11.23;71.80
71996;BME280;59862;47.732;7.346;2023-05-02T00:31:40;98234.48;;;11.14;72.28
71996;BME280;59862;47.732;7.346;2023-05-02T00:34:08;98236.22;;;11.07;72.46
71996;BME280;59862;47.732;7.346;2023-05-02T00:36:35;98235.91;;;11.02;72.72
71996;BME280;59862;47.732;7.346;2023-05-02T00:39:03;98240.86;;;10.95;73.12
71996;BME280;59862;47.732;7.346;2023-05-02T00:41:30;98246.23;;;10.95;73.21
71996;BME280;59862;47.732;7.346;2023-05-02T00:43:58;98245.77;;;10.87;73.32
71996;BME280;59862;47.732;7.346;2023-05-02T00:46:26;98240.27;;;10.85;73.58
71996;BME280;59862;47.732;7.346;2023-05-02T00:48:54;98241.84;;;10.75;73.79
71996;BME280;59862;47.732;7.346;2023-05-02T00:51:21;98242.38;;;10.71;74.14
71996;BME280;59862;47.732;7.346;2023-05-02T00:53:49;98247.08;;;10.68;74.18
71996;BME280;59862;47.732;7.346;2023-05-02T00:56:17;98247.62;;;10.64;74.22
71996;BME280;59862;47.732;7.346;2023-05-02T00:58:45;98251.33;;;10.63;74.44
71996;BME280;59862;47.732;7.346;2023-05-02T01:01:32;98250.80;;;10.63;74.66
71996;BME280;59862;47.732;7.346;2023-05-02T01:03:59;98255.35;;;10.59;74.75
71996;BME280;59862;47.732;7.346;2023-05-02T01:09:21;98255.94;;;10.46;75.51
71996;BME280;59862;47.732;7.346;2023-05-02T01:11:59;98257.30;;;10.42;75.61
71996;BME280;59862;47.732;7.346;2023-05-02T01:14:25;98254.75;;;10.49;75.65
71996;BME280;59862;47.732;7.346;2023-05-02T01:16:56;98264.67;;;10.44;75.77
71996;BME280;59862;47.732;7.346;2023-05-02T01:19:41;98264.96;;;10.53;75.62
71996;BME280;59862;47.732;7.346;2023-05-02T01:22:06;98265.61;;;10.55;75.54
71996;BME280;59862;47.732;7.346;2023-05-02T01:25:03;98266.98;;;10.51;75.41
71996;BME280;59862;47.732;7.346;2023-05-02T01:30:28;98274.84;;;10.53;75.29
71996;BME280;59862;47.732;7.346;2023-05-02T01:33:00;98270.35;;;10.49;75.30
71996;BME280;59862;47.732;7.346;2023-05-02T01:35:29;98266.64;;;10.50;75.40
71996;BME280;59862;47.732;7.346;2023-05-02T01:37:59;98269.48;;;10.53;75.35
71996;BME280;59862;47.732;7.346;2023-05-02T01:40:27;98265.03;;;10.37;75.86
71996;BME280;59862;47.732;7.346;2023-05-02T01:42:56;98268.27;;;10.33;76.08
71996;BME280;59862;47.732;7.346;2023-05-02T01:45:27;98268.40;;;10.35;76.24
71996;BME280;59862;47.732;7.346;2023-05-02T01:47:56;98268.40;;;10.35;76.24
71996;BME280;59862;47.732;7.346;2023-05-02T01:50:24;98271.41;;;10.40;76.21
71996;BME280;59862;47.732;7.346;2023-05-02T01:52:53;98266.56;;;10.36;76.09
71996;BME280;59862;47.732;7.346;2023-05-02T01:55:22;98267.42;;;10.32;76.07
71996;BME280;59862;47.732;7.346;2023-05-02T01:57:53;98266.42;;;10.29;76.44
71996;BME280;59862;47.732;7.346;2023-05-02T02:00:22;98267.45;;;10.28;76.33
71996;BME280;59862;47.732;7.346;2023-05-02T02:02:51;98271.81;;;10.25;76.52
71996;BME280;59862;47.732;7.346;2023-05-02T02:05:22;98272.16;;;10.26;76.50
71996;BME280;59862;47.732;7.346;2023-05-02T02:07:50;98267.81;;;10.21;76.55
71996;BME280;59862;47.732;7.346;2023-05-02T02:10:18;98273.86;;;10.19;76.82
71996;BME280;59862;47.732;7.346;2023-05-02T02:12:51;98273.34;;;10.16;76.77
71996;BME280;59862;47.732;7.346;2023-05-02T02:15:26;98275.90;;;10.13;76.88
71996;BME280;59862;47.732;7.346;2023-05-02T02:17:54;98278.27;;;10.00;77.62
71996;BME280;59862;47.732;7.346;2023-05-02T02:20:21;98278.27;;;10.00;77.62
71996;BME280;59862;47.732;7.346;2023-05-02T02:22:50;98276.42;;;9.92;77.64
71996;BME280;59862;47.732;7.346;2023-05-02T02:25:19;98272.27;;;9.86;77.98
71996;BME280;59862;47.732;7.346;2023-05-02T02:27:47;98282.67;;;9.85;78.04
71996;BME280;59862;47.732;7.346;2023-05-02T02:30:15;98289.73;;;9.74;78.53
71996;BME280;59862;47.732;7.346;2023-05-02T02:32:42;98282.03;;;9.67;78.70
71996;BME280;59862;47.732;7.346;2023-05-02T02:35:10;98280.36;;;9.58;79.14
71996;BME280;59862;47.732;7.346;2023-05-02T02:37:46;98290.10;;;9.55;79.23
71996;BME280;59862;47.732;7.346;2023-05-02T02:40:28;98292.27;;;9.47;79.55
71996;BME280;59862;47.732;7.346;2023-05-02T02:43:07;98292.27;;;9.47;79.55
71996;BME280;59862;47.732;7.346;2023-05-02T02:48:41;98294.45;;;9.36;80.32
71996;BME280;59862;47.732;7.346;2023-05-02T02:51:12;98289.09;;;9.32;80.33
71996;BME280;59862;47.732;7.346;2023-05-02T02:54:15;98290.12;;;9.27;80.56
71996;BME280;59862;47.732;7.346;2023-05-02T02:56:44;98293.13;;;9.20;81.01
71996;BME280;59862;47.732;7.346;2023-05-02T03:02:08;98298.49;;;9.15;81.36
71996;BME280;59862;47.732;7.346;2023-05-02T03:04:38;98296.81;;;9.06;81.69
71996;BME280;59862;47.732;7.346;2023-05-02T03:07:07;98296.31;;;9.03;81.95
71996;BME280;59862;47.732;7.346;2023-05-02T03:09:43;98303.82;;;9.03;82.05
71996;BME280;59862;47.732;7.346;2023-05-02T03:12:12;98298.96;;;8.99;82.20
71996;BME280;59862;47.732;7.346;2023-05-02T03:14:40;98299.81;;;8.95;82.00
71996;BME280;59862;47.732;7.346;2023-05-02T03:17:09;98299.81;;;8.95;82.00
71996;BME280;59862;47.732;7.346;2023-05-02T03:19:37;98304.98;;;8.89;82.58
71996;BME280;59862;47.732;7.346;2023-05-02T03:22:04;98312.52;;;8.93;82.65
71996;BME280;59862;47.732;7.346;2023-05-02T03:24:32;98309.67;;;8.91;82.64
71996;BME280;59862;47.732;7.346;2023-05-02T03:26:59;98306.50;;;8.95;82.65
71996;BME280;59862;47.732;7.346;2023-05-02T03:29:27;98314.53;;;8.99;82.45
71996;BME280;59862;47.732;7.346;2023-05-02T03:31:54;98314.03;;;9.00;82.26
71996;BME280;59862;47.732;7.346;2023-05-02T03:34:21;98322.20;;;8.94;82.51
71996;BME280;59862;47.732;7.346;2023-05-02T03:36:49;98334.25;;;8.90;82.67
71996;BME280;59862;47.732;7.346;2023-05-02T03:39:17;98330.58;;;8.91;82.83
71996;BME280;59862;47.732;7.346;2023-05-02T03:41:44;98335.27;;;8.89;82.86
71996;BME280;59862;47.732;7.346;2023-05-02T03:44:11;98335.93;;;8.83;83.03
71996;BME280;59862;47.732;7.346;2023-05-02T03:46:39;98338.61;;;8.83;83.14
71996;BME280;59862;47.732;7.346;2023-05-02T03:49:06;98345.79;;;8.83;83.19
71996;BME280;59862;47.732;7.346;2023-05-02T03:51:34;98344.94;;;8.78;83.35
71996;BME280;59862;47.732;7.346;2023-05-02T03:54:01;98350.28;;;8.74;83.54
71996;BME280;59862;47.732;7.346;2023-05-02T03:56:29;98361.97;;;8.73;83.76
71996;BME280;59862;47.732;7.346;2023-05-02T03:58:56;98362.15;;;8.76;83.69
71996;BME280;59862;47.732;7.346;2023-05-02T04:01:24;98365.98;;;8.73;83.86
71996;BME280;59862;47.732;7.346;2023-05-02T04:03:52;98371.34;;;8.77;83.80
71996;BME280;59862;47.732;7.346;2023-05-02T04:06:19;98363.84;;;8.77;83.89
71996;BME280;59862;47.732;7.346;2023-05-02T04:08:47;98367.68;;;8.78;83.87
71996;BME280;59862;47.732;7.346;2023-05-02T04:11:15;98365.17;;;8.77;83.90
71996;BME280;59862;47.732;7.346;2023-05-02T04:13:42;98365.17;;;8.77;83.90
71996;BME280;59862;47.732;7.346;2023-05-02T04:16:09;98376.39;;;8.84;83.87
71996;BME280;59862;47.732;7.346;2023-05-02T04:18:37;98377.05;;;8.82;83.83
71996;BME280;59862;47.732;7.346;2023-05-02T04:21:06;98388.25;;;8.86;84.00
71996;BME280;59862;47.732;7.346;2023-05-02T04:23:36;98394.15;;;8.97;83.84
71996;BME280;59862;47.732;7.346;2023-05-02T04:26:03;98394.15;;;8.97;83.84
71996;BME280;59862;47.732;7.346;2023-05-02T04:28:33;98398.03;;;9.07;83.64
71996;BME280;59862;47.732;7.346;2023-05-02T04:31:02;98399.55;;;9.18;83.39
71996;BME280;59862;47.732;7.346;2023-05-02T04:33:30;98398.71;;;9.21;82.82
71996;BME280;59862;47.732;7.346;2023-05-02T04:35:57;98398.71;;;9.21;82.82
71996;BME280;59862;47.732;7.346;2023-05-02T04:38:25;98404.24;;;9.24;82.94
71996;BME280;59862;47.732;7.346;2023-05-02T04:40:52;98402.23;;;9.30;82.81
71996;BME280;59862;47.732;7.346;2023-05-02T04:43:20;98396.88;;;9.38;82.61
71996;BME280;59862;47.732;7.346;2023-05-02T04:45:48;98400.93;;;9.46;82.35
71996;BME280;59862;47.732;7.346;2023-05-02T04:48:15;98409.63;;;9.48;82.17
71996;BME280;59862;47.732;7.346;2023-05-02T04:50:44;98408.96;;;9.50;82.02
71996;BME280;59862;47.732;7.346;2023-05-02T04:53:12;98407.44;;;9.55;81.92
71996;BME280;59862;47.732;7.346;2023-05-02T04:55:40;98406.63;;;9.55;81.63
71996;BME280;59862;47.732;7.346;2023-05-02T04:58:08;98413.64;;;9.64;81.45
71996;BME280;59862;47.732;7.346;2023-05-02T05:00:35;98425.17;;;9.44;81.64
71996;BME280;59862;47.732;7.346;2023-05-02T05:03:03;98425.17;;;9.44;81.64
71996;BME280;59862;47.732;7.346;2023-05-02T05:05:32;98433.07;;;9.50;81.87
71996;BME280;59862;47.732;7.346;2023-05-02T05:08:00;98435.25;;;9.54;81.61
71996;BME280;59862;47.732;7.346;2023-05-02T05:10:27;98437.26;;;9.60;81.47
71996;BME280;59862;47.732;7.346;2023-05-02T05:12:54;98446.45;;;9.66;81.37
71996;BME280;59862;47.732;7.346;2023-05-02T05:15:22;98449.83;;;9.76;81.13
71996;BME280;59862;47.732;7.346;2023-05-02T05:17:51;98440.63;;;9.82;80.82
71996;BME280;59862;47.732;7.346;2023-05-02T05:20:19;98448.98;;;10.00;80.42
71996;BME280;59862;47.732;7.346;2023-05-02T05:22:47;98448.98;;;10.00;80.42
71996;BME280;59862;47.732;7.346;2023-05-02T05:25:14;98446.31;;;10.12;80.07
71996;BME280;59862;47.732;7.346;2023-05-02T05:27:41;98451.48;;;10.29;79.60
71996;BME280;59862;47.732;7.346;2023-05-02T05:30:10;98456.80;;;10.53;78.90
71996;BME280;59862;47.732;7.346;2023-05-02T05:32:37;98470.31;;;10.72;78.11
71996;BME280;59862;47.732;7.346;2023-05-02T05:35:05;98465.94;;;10.79;77.41
71996;BME280;59862;47.732;7.346;2023-05-02T05:37:33;98469.97;;;10.79;77.17
71996;BME280;59862;47.732;7.346;2023-05-02T05:40:03;98478.53;;;10.83;77.15
71996;BME280;59862;47.732;7.346;2023-05-02T05:42:30;98486.55;;;10.91;76.99
71996;BME280;59862;47.732;7.346;2023-05-02T05:44:58;98481.90;;;10.73;77.11
71996;BME280;59862;47.732;7.346;2023-05-02T05:47:25;98486.80;;;10.57;77.35
71996;BME280;59862;47.732;7.346;2023-05-02T05:49:53;98487.33;;;10.48;77.63
71996;BME280;59862;47.732;7.346;2023-05-02T05:52:21;98491.22;;;10.30;78.05
71996;BME280;59862;47.732;7.346;2023-05-02T05:54:52;98500.78;;;10.32;78.33
71996;BME280;59862;47.732;7.346;2023-05-02T05:57:18;98502.80;;;10.14;78.78
71996;BME280;59862;47.732;7.346;2023-05-02T05:59:45;98497.23;;;10.08;79.22
71996;BME280;59862;47.732;7.346;2023-05-02T06:02:13;98499.13;;;10.11;79.22
71996;BME280;59862;47.732;7.346;2023-05-02T06:04:41;98503.64;;;10.15;79.14
71996;BME280;59862;47.732;7.346;2023-05-02T06:07:09;98504.80;;;10.16;78.96
71996;BME280;59862;47.732;7.346;2023-05-02T06:09:36;98508.14;;;10.38;78.75
71996;BME280;59862;47.732;7.346;2023-05-02T06:12:04;98513.17;;;10.45;78.23
71996;BME280;59862;47.732;7.346;2023-05-02T06:14:31;98512.80;;;10.64;77.79
71996;BME280;59862;47.732;7.346;2023-05-02T06:16:59;98512.80;;;10.64;77.79
71996;BME280;59862;47.732;7.346;2023-05-02T06:19:26;98512.09;;;10.75;77.30
71996;BME280;59862;47.732;7.346;2023-05-02T06:21:54;98516.09;;;10.79;77.22
71996;BME280;59862;47.732;7.346;2023-05-02T06:24:22;98519.69;;;10.63;77.34
71996;BME280;59862;47.732;7.346;2023-05-02T06:26:50;98519.02;;;10.61;77.78
71996;BME280;59862;47.732;7.346;2023-05-02T06:29:17;98522.33;;;10.75;77.73
71996;BME280;59862;47.732;7.346;2023-05-02T06:31:44;98521.47;;;10.79;77.32
71996;BME280;59862;47.732;7.346;2023-05-02T06:34:12;98528.53;;;10.80;77.20
71996;BME280;59862;47.732;7.346;2023-05-02T06:36:39;98529.85;;;10.84;77.23
71996;BME280;59862;47.732;7.346;2023-05-02T06:39:07;98532.13;;;11.03;77.13
71996;BME280;59862;47.732;7.346;2023-05-02T06:41:34;98528.70;;;11.25;76.44
71996;BME280;59862;47.732;7.346;2023-05-02T06:44:01;98533.64;;;11.44;75.83
71996;BME280;59862;47.732;7.346;2023-05-02T06:46:29;98543.67;;;11.50;75.12
71996;BME280;59862;47.732;7.346;2023-05-02T06:48:57;98540.81;;;11.56;74.41
71996;BME280;59862;47.732;7.346;2023-05-02T06:51:24;98544.34;;;11.56;73.74
71996;BME280;59862;47.732;7.346;2023-05-02T06:53:53;98543.47;;;11.60;73.55
71996;BME280;59862;47.732;7.346;2023-05-02T06:56:20;98544.77;;;11.72;73.21
71996;BME280;59862;47.732;7.346;2023-05-02T06:58:48;98542.86;;;11.80;72.92
71996;BME280;59862;47.732;7.346;2023-05-02T07:01:16;98545.80;;;11.71;72.83
71996;BME280;59862;47.732;7.346;2023-05-02T07:03:45;98542.20;;;11.78;73.48
71996;BME280;59862;47.732;7.346;2023-05-02T07:06:12;98544.55;;;11.81;73.95
71996;BME280;59862;47.732;7.346;2023-05-02T07:08:40;98547.61;;;12.01;73.89
71996;BME280;59862;47.732;7.346;2023-05-02T07:11:07;98544.98;;;12.15;73.51
71996;BME280;59862;47.732;7.346;2023-05-02T07:13:35;98547.02;;;12.13;72.77
71996;BME280;59862;47.732;7.346;2023-05-02T07:16:02;98545.02;;;12.11;72.07
71996;BME280;59862;47.732;7.346;2023-05-02T07:18:30;98547.25;;;12.27;72.02
71996;BME280;59862;47.732;7.346;2023-05-02T07:20:57;98542.74;;;12.42;72.59
71996;BME280;59862;47.732;7.346;2023-05-02T07:23:26;98538.23;;;12.57;71.41
71996;BME280;59862;47.732;7.346;2023-05-02T07:25:54;98544.42;;;12.76;70.56
71996;BME280;59862;47.732;7.346;2023-05-02T07:28:21;98547.77;;;12.78;69.65
71996;BME280;59862;47.732;7.346;2023-05-02T07:30:48;98542.68;;;12.83;69.47
71996;BME280;59862;47.732;7.346;2023-05-02T07:33:16;98542.73;;;12.79;69.30
71996;BME280;59862;47.732;7.346;2023-05-02T07:35:43;98542.38;;;12.97;68.46
71996;BME280;59862;47.732;7.346;2023-05-02T07:38:11;98544.54;;;13.16;68.53
71996;BME280;59862;47.732;7.346;2023-05-02T07:40:39;98546.97;;;13.25;68.11
71996;BME280;59862;47.732;7.346;2023-05-02T07:43:07;98547.28;;;13.51;68.05
71996;BME280;59862;47.732;7.346;2023-05-02T07:45:34;98539.05;;;13.63;67.42
71996;BME280;59862;47.732;7.346;2023-05-02T07:48:02;98542.38;;;13.65;66.19
71996;BME280;59862;47.732;7.346;2023-05-02T07:50:29;98543.25;;;13.87;65.20
71996;BME280;59862;47.732;7.346;2023-05-02T07:52:57;98492.16;;;13.64;65.39
71996;BME280;59862;47.732;7.346;2023-05-02T07:55:25;98545.19;;;14.04;64.48
71996;BME280;59862;47.732;7.346;2023-05-02T07:57:53;98543.13;;;14.31;64.23
71996;BME280;59862;47.732;7.346;2023-05-02T08:00:21;98540.58;;;14.61;64.07
71996;BME280;59862;47.732;7.346;2023-05-02T08:02:48;98551.42;;;14.95;61.99
71996;BME280;59862;47.732;7.346;2023-05-02T08:05:16;98541.50;;;15.02;61.00
71996;BME280;59862;47.732;7.346;2023-05-02T08:07:44;98544.34;;;14.94;62.37
71996;BME280;59862;47.732;7.346;2023-05-02T08:10:12;98549.14;;;15.27;62.01
71996;BME280;59862;47.732;7.346;2023-05-02T08:12:41;98552.10;;;15.21;60.73
71996;BME280;59862;47.732;7.346;2023-05-02T08:15:11;98553.97;;;15.03;59.88
71996;BME280;59862;47.732;7.346;2023-05-02T08:17:39;98559.78;;;15.35;59.85
71996;BME280;59862;47.732;7.346;2023-05-02T08:20:07;98567.84;;;15.86;59.07
71996;BME280;59862;47.732;7.346;2023-05-02T08:22:35;98566.70;;;15.84;58.08
71996;BME280;59862;47.732;7.346;2023-05-02T08:25:02;98567.16;;;15.71;58.85
71996;BME280;59862;47.732;7.346;2023-05-02T08:27:30;98566.03;;;15.35;59.30
71996;BME280;59862;47.732;7.346;2023-05-02T08:29:57;98568.77;;;15.42;59.23
71996;BME280;59862;47.732;7.346;2023-05-02T08:32:25;98567.44;;;15.31;59.40
71996;BME280;59862;47.732;7.346;2023-05-02T08:34:56;98570.28;;;15.51;58.10
71996;BME280;59862;47.732;7.346;2023-05-02T08:37:23;98577.80;;;15.79;58.24
71996;BME280;59862;47.732;7.346;2023-05-02T08:39:51;98583.17;;;15.96;58.49
71996;BME280;59862;47.732;7.346;2023-05-02T08:42:19;98583.13;;;16.07;58.10
71996;BME280;59862;47.732;7.346;2023-05-02T08:44:48;98575.91;;;16.03;57.43
71996;BME280;59862;47.732;7.346;2023-05-02T08:47:17;98577.87;;;15.99;56.63
71996;BME280;59862;47.732;7.346;2023-05-02T08:49:45;98583.23;;;16.59;56.53
71996;BME280;59862;47.732;7.346;2023-05-02T08:52:13;98579.39;;;16.77;55.10
71996;BME280;59862;47.732;7.346;2023-05-02T08:54:44;98576.27;;;16.93;55.65
71996;BME280;59862;47.732;7.346;2023-05-02T08:57:12;98584.91;;;17.06;54.52
71996;BME280;59862;47.732;7.346;2023-05-02T08:59:41;98581.06;;;17.04;53.89
71996;BME280;59862;47.732;7.346;2023-05-02T09:02:22;98581.66;;;17.26;53.75
71996;BME280;59862;47.732;7.346;2023-05-02T09:04:46;98576.50;;;17.40;52.40
71996;BME280;59862;47.732;7.346;2023-05-02T09:07:16;98580.70;;;17.29;52.54
71996;BME280;59862;47.732;7.346;2023-05-02T09:09:43;98580.28;;;17.74;52.74
71996;BME280;59862;47.732;7.346;2023-05-02T09:12:11;98579.39;;;17.87;52.43
71996;BME280;59862;47.732;7.346;2023-05-02T09:14:39;98580.81;;;17.32;52.54
71996;BME280;59862;47.732;7.346;2023-05-02T09:17:06;98583.12;;;17.09;53.49
71996;BME280;59862;47.732;7.346;2023-05-02T09:19:33;98582.51;;;16.87;52.85
71996;BME280;59862;47.732;7.346;2023-05-02T09:22:01;98587.41;;;16.75;54.14
71996;BME280;59862;47.732;7.346;2023-05-02T09:24:29;98595.87;;;17.08;53.75
71996;BME280;59862;47.732;7.346;2023-05-02T09:27:03;98588.47;;;17.48;54.21
71996;BME280;59862;47.732;7.346;2023-05-02T09:29:30;98589.38;;;17.99;51.46
71996;BME280;59862;47.732;7.346;2023-05-02T09:32:00;98585.92;;;18.01;51.94
71996;BME280;59862;47.732;7.346;2023-05-02T09:34:29;98594.88;;;18.24;51.15
71996;BME280;59862;47.732;7.346;2023-05-02T09:36:57;98591.84;;;18.07;49.82
71996;BME280;59862;47.732;7.346;2023-05-02T09:39:26;98594.49;;;18.21;51.13
71996;BME280;59862;47.732;7.346;2023-05-02T09:41:57;98591.56;;;18.44;48.87
71996;BME280;59862;47.732;7.346;2023-05-02T09:44:27;98591.72;;;18.65;49.71
71996;BME280;59862;47.732;7.346;2023-05-02T09:46:55;98591.80;;;18.83;48.38
71996;BME280;59862;47.732;7.346;2023-05-02T09:49:38;98587.38;;;19.22;48.92
71996;BME280;59862;47.732;7.346;2023-05-02T09:52:15;98584.34;;;19.55;46.43
71996;BME280;59862;47.732;7.346;2023-05-02T09:54:39;98595.75;;;20.68;44.87
71996;BME280;59862;47.732;7.346;2023-05-02T09:57:06;98592.24;;;20.20;44.35
71996;BME280;59862;47.732;7.346;2023-05-02T09:59:36;98584.09;;;20.02;45.51
71996;BME280;59862;47.732;7.346;2023-05-02T10:02:06;98592.38;;;20.64;44.08
71996;BME280;59862;47.732;7.346;2023-05-02T10:04:36;98587.34;;;21.46;43.24
71996;BME280;59862;47.732;7.346;2023-05-02T10:07:04;98589.71;;;22.17;40.31
71996;BME280;59862;47.732;7.346;2023-05-02T10:09:35;98586.97;;;21.54;40.61
71996;BME280;59862;47.732;7.346;2023-05-02T10:12:04;98587.09;;;22.22;39.70
71996;BME280;59862;47.732;7.346;2023-05-02T10:14:42;98588.41;;;22.92;38.07
71996;BME280;59862;47.732;7.346;2023-05-02T10:17:12;98591.26;;;22.83;37.78
71996;BME280;59862;47.732;7.346;2023-05-02T10:19:50;98585.34;;;23.05;37.81
71996;BME280;59862;47.732;7.346;2023-05-02T10:22:13;98588.56;;;23.52;37.58
71996;BME280;59862;47.732;7.346;2023-05-02T10:24:42;98593.51;;;23.53;36.64
71996;BME280;59862;47.732;7.346;2023-05-02T10:27:09;98592.20;;;22.75;37.48
71996;BME280;59862;47.732;7.346;2023-05-02T10:29:39;98591.84;;;22.85;37.44
71996;BME280;59862;47.732;7.346;2023-05-02T10:32:07;98590.19;;;22.14;38.01
71996;BME280;59862;47.732;7.346;2023-05-02T10:34:35;98575.53;;;21.68;39.06
71996;BME280;59862;47.732;7.346;2023-05-02T10:37:04;98584.91;;;21.96;39.80
71996;BME280;59862;47.732;7.346;2023-05-02T10:39:32;98573.92;;;23.11;37.58
71996;BME280;59862;47.732;7.346;2023-05-02T10:42:01;98577.94;;;24.16;36.58
71996;BME280;59862;47.732;7.346;2023-05-02T10:44:33;98581.13;;;23.50;36.40
71996;BME280;59862;47.732;7.346;2023-05-02T10:47:16;98575.31;;;23.85;35.06
71996;BME280;59862;47.732;7.346;2023-05-02T10:49:30;98576.89;;;23.59;35.48
71996;BME280;59862;47.732;7.346;2023-05-02T10:51:57;98575.06;;;23.12;35.84
71996;BME280;59862;47.732;7.346;2023-05-02T10:54:25;98579.98;;;22.96;36.39
71996;BME280;59862;47.732;7.346;2023-05-02T10:57:06;98569.32;;;23.66;35.60
71996;BME280;59862;47.732;7.346;2023-05-02T10:59:38;98572.98;;;24.15;35.05
71996;BME280;59862;47.732;7.346;2023-05-02T11:05:06;98569.84;;;24.52;33.02
71996;BME280;59862;47.732;7.346;2023-05-02T11:07:35;98578.30;;;24.99;33.37
71996;BME280;59862;47.732;7.346;2023-05-02T11:12:53;98578.97;;;24.58;33.41
71996;BME280;59862;47.732;7.346;2023-05-02T11:20:28;98575.42;;;24.60;32.79
71996;BME280;59862;47.732;7.346;2023-05-02T11:22:59;98566.14;;;25.69;32.27
71996;BME280;59862;47.732;7.346;2023-05-02T11:25:38;98570.99;;;25.51;32.47
71996;BME280;59862;47.732;7.346;2023-05-02T11:28:07;98564.45;;;24.89;33.09
71996;BME280;59862;47.732;7.346;2023-05-02T11:30:38;98562.84;;;23.20;35.52
71996;BME280;59862;47.732;7.346;2023-05-02T11:35:40;98563.02;;;23.30;34.64
71996;BME280;59862;47.732;7.346;2023-05-02T11:38:12;98561.11;;;23.47;35.56
71996;BME280;59862;47.732;7.346;2023-05-02T11:40:46;98552.40;;;24.90;34.30
71996;BME280;59862;47.732;7.346;2023-05-02T11:43:14;98559.79;;;25.24;32.09
71996;BME280;59862;47.732;7.346;2023-05-02T11:45:42;98567.30;;;25.38;30.85
71996;BME280;59862;47.732;7.346;2023-05-02T11:48:11;98558.09;;;24.08;33.12
71996;BME280;59862;47.732;7.346;2023-05-02T11:50:47;98559.78;;;24.63;32.47
71996;BME280;59862;47.732;7.346;2023-05-02T11:53:17;98560.02;;;25.17;31.49
71996;BME280;59862;47.732;7.346;2023-05-02T11:55:57;98553.19;;;26.11;30.75
71996;BME280;59862;47.732;7.346;2023-05-02T11:58:32;98558.71;;;24.64;30.57
71996;BME280;59862;47.732;7.346;2023-05-02T12:01:20;98553.23;;;25.30;30.55
71996;BME280;59862;47.732;7.346;2023-05-02T12:03:31;98549.38;;;26.27;29.67
71996;BME280;59862;47.732;7.346;2023-05-02T12:06:15;98547.59;;;26.80;29.29
71996;BME280;59862;47.732;7.346;2023-05-02T12:08:46;98547.45;;;27.94;28.18
71996;BME280;59862;47.732;7.346;2023-05-02T12:11:15;98550.60;;;26.81;28.48
71996;BME280;59862;47.732;7.346;2023-05-02T12:13:45;98549.52;;;27.15;28.23
71996;BME280;59862;47.732;7.346;2023-05-02T12:16:13;98536.25;;;26.67;27.88
71996;BME280;59862;47.732;7.346;2023-05-02T12:18:41;98548.41;;;27.19;28.16
71996;BME280;59862;47.732;7.346;2023-05-02T12:21:09;98546.20;;;27.26;27.92
71996;BME280;59862;47.732;7.346;2023-05-02T12:23:38;98543.45;;;27.41;27.38
71996;BME280;59862;47.732;7.346;2023-05-02T12:26:21;98543.03;;;27.90;27.15
71996;BME280;59862;47.732;7.346;2023-05-02T12:28:52;98545.73;;;28.13;26.68
71996;BME280;59862;47.732;7.346;2023-05-02T12:31:25;98546.97;;;27.64;25.52
71996;BME280;59862;47.732;7.346;2023-05-02T12:33:54;98543.91;;;27.78;26.68
71996;BME280;59862;47.732;7.346;2023-05-02T12:36:24;98544.18;;;28.45;26.52
71996;BME280;59862;47.732;7.346;2023-05-02T12:38:55;98548.91;;;29.20;25.17
71996;BME280;59862;47.732;7.346;2023-05-02T12:41:31;98544.59;;;28.21;26.75
71996;BME280;59862;47.732;7.346;2023-05-02T12:43:59;98540.31;;;26.34;28.68
71996;BME280;59862;47.732;7.346;2023-05-02T12:46:26;98543.52;;;24.80;31.10
71996;BME280;59862;47.732;7.346;2023-05-02T12:49:07;98529.68;;;24.70;30.44
71996;BME280;59862;47.732;7.346;2023-05-02T12:51:38;98531.41;;;26.07;27.83
71996;BME280;59862;47.732;7.346;2023-05-02T12:54:06;98534.72;;;28.03;26.45
71996;BME280;59862;47.732;7.346;2023-05-02T12:56:40;98532.64;;;28.33;24.35
71996;BME280;59862;47.732;7.346;2023-05-02T12:59:23;98538.66;;;28.45;24.56
71996;BME280;59862;47.732;7.346;2023-05-02T13:01:39;98536.42;;;30.83;23.00
71996;BME280;59862;47.732;7.346;2023-05-02T13:04:06;98543.79;;;31.57;21.93
71996;BME280;59862;47.732;7.346;2023-05-02T13:06:34;98547.08;;;31.11;21.84
71996;BME280;59862;47.732;7.346;2023-05-02T13:09:03;98539.39;;;30.89;22.78
71996;BME280;59862;47.732;7.346;2023-05-02T13:11:30;98543.92;;;30.64;21.95
71996;BME280;59862;47.732;7.346;2023-05-02T13:13:58;98543.56;;;27.95;24.88
71996;BME280;59862;47.732;7.346;2023-05-02T13:16:27;98534.62;;;29.39;23.49
71996;BME280;59862;47.732;7.346;2023-05-02T13:18:55;98530.03;;;31.66;21.56
71996;BME280;59862;47.732;7.346;2023-05-02T13:21:23;98533.02;;;32.10;20.89
71996;BME280;59862;47.732;7.346;2023-05-02T13:23:50;98534.41;;;31.83;21.40
71996;BME280;59862;47.732;7.346;2023-05-02T13:26:18;98542.20;;;30.68;22.74
71996;BME280;59862;47.732;7.346;2023-05-02T13:28:46;98544.97;;;28.51;22.85
71996;BME280;59862;47.732;7.346;2023-05-02T13:31:14;98539.14;;;29.56;22.72
71996;BME280;59862;47.732;7.346;2023-05-02T13:33:41;98528.56;;;30.11;22.65
71996;BME280;59862;47.732;7.346;2023-05-02T13:36:09;98525.88;;;31.50;21.52
71996;BME280;59862;47.732;7.346;2023-05-02T13:38:36;98528.48;;;31.60;20.97